Weather at Heli Taxi Chocznia

Public forecast

Using degrees Celsius for public forecast. Weather courtesy of forecast.io.

Closest aviation weather report (METAR) to Heli Taxi Chocznia

Closest report is Kraków John Paul II International Airport, 17.0 nm (31.6 km) NE.

2024/06/13 09:30 (retrieved 31 minutes ago)

EPKK 130930Z 05005G15KT 360V070 9999 SCT012 BKN030 12/09 Q1018

Closest aviation forecast (TAF) to Heli Taxi Chocznia

Closest forecast is Kraków John Paul II International Airport, 17.0 nm (31.6 km) NE.

2024/06/13 09:33 (retrieved 28 minutes ago)

TAF TAF EPKK 130830Z 1309/1409 04006KT 9999 SCT012 OVC035 BECMG 1318/1320 4000 BR BECMG 1320/1322 2000 BR BECMG 1323/1402 0400 FG BKN002 BECMG 1404/1406 9999 SCT020